UACC/TSE METAR and TAF weather

Enter ICAO airport designator
Station Type Date Time Source
UACC METAR 2022/06/26 08:00 UTC NOAA

UACC 260800Z 28004MPS 250V320 9999 BKN040 26/16 Q1002 NOSIG RMK QFE721/0961


Station Type Date Time Source
UACC Decoded METAR 2022/06/26 08:00 UTC NOAA

Astana, Kazakhstan (UACC) 51-12N 071-27E
Jun 26, 2022 - 04:00 AM EDT / 2022.06.26 0800 UTC
Wind: from the W (280 degrees) at 9 MPH (8 KT) (direction variable):0
Visibility: greater than 7 mile(s):0
Sky conditions: mostly cloudy
Temperature: 78 F (26 C)
Dew Point: 60 F (16 C)
Relative Humidity: 54%
Pressure (altimeter): 29.59 in. Hg (1002 hPa)
ob: UACC 260800Z 28004MPS 250V320 9999 BKN040 26/16 Q1002 NOSIG RMK QFE721/0961
cycle: 8

Station Type Date Time Source
UACC TAF 2022/06/26 06:21 UTC NOAA

TAF UACC 260505Z 2606/2706 30008MPS 9999 BKN040CB BKN100 TX28/2609Z TN16/2623Z
TEMPO 2606/2615 VRB20MPS 3100 -TSRA SQ BKN011 BKN030CB
BECMG 2616/2618 VRB02MPS
BECMG 2620/2622 34007MPS BKN011 BKN030CB
TEMPO 2622/2706 32009G14MPS 5000 -SHRA BKN007 BKN020CB

Example: see airport list